Kappa — LM6081 — position and weather

sailwx.info

Track history (hours):
 
Tides and Currents Weather Stations Pressure Air Temp Water Temp Dewpoint Dewpoint Depression Visibility Wind Speed Wind Dir Waves Ship Positions

Kappa

Last reported at 2018-May-10 17:16 UTC. Time now 2018-Jun-23 08:03 UTC.
Position N 70°59' E 026°11'.
Warning: this ship's position is 43 days out of date.

Length 12 m.

Type: Fishing. MMSI: 257317020.

Date/timePositionNaut miles runAvg speedWind from/ knotsBaromVisibWave heightAir tempDewpointWater temp
2018-May-10 17:16N 70°59' E 026°11'2 7.2
2018-May-10 17:01N 70°58' E 026°08'4 7.2
2018-May-10 16:30N 70°55' E 026°01'2 4.4
2018-May-10 16:00N 70°53' E 025°57'1 1.6
2018-May-10 15:29N 70°53' E 025°59'1 1.5
2018-May-10 14:58N 70°52' E 025°57'3 6.4
2018-May-10 14:30N 70°55' E 025°56'1 2.8
2018-May-10 14:00N 70°56' E 025°59'2 0.4
2018-May-10 08:38N 70°58' E 026°01'1 6.8
2018-May-10 08:30N 70°58' E 025°59'1 1.1
2018-May-10 07:59N 70°59' E 025°58'0 0.0
2018-May-10 07:26N 70°59' E 025°58'  
Track history (hours):
 
Tides and Currents Weather Stations Pressure Air Temp Water Temp Dewpoint Dewpoint Depression Visibility Wind Speed Wind Dir Waves Ship Positions

Kappa

Last reported at 2018-May-10 17:16 UTC. Time now 2018-Jun-23 08:03 UTC.
Position N 70°59' E 026°11'.
Warning: this ship's position is 43 days out of date.

Length 12 m.

Type: Fishing. MMSI: 257317020.

Date/timePositionNaut miles runAvg speedWind from/ knotsBaromVisibWave heightAir tempDewpointWater temp
2018-May-10 17:16N 70°59' E 026°11'2 7.2
2018-May-10 17:01N 70°58' E 026°08'4 7.2
2018-May-10 16:30N 70°55' E 026°01'2 4.4
2018-May-10 16:00N 70°53' E 025°57'1 1.6
2018-May-10 15:29N 70°53' E 025°59'1 1.5
2018-May-10 14:58N 70°52' E 025°57'3 6.4
2018-May-10 14:30N 70°55' E 025°56'1 2.8
2018-May-10 14:00N 70°56' E 025°59'2 0.4
2018-May-10 08:38N 70°58' E 026°01'1 6.8
2018-May-10 08:30N 70°58' E 025°59'1 1.1
2018-May-10 07:59N 70°59' E 025°58'0 0.0
2018-May-10 07:26N 70°59' E 025°58'  

Dump ship's entire track history